createdAt,value
2023-03-04T00:00:05.589Z,41.16
2023-03-04T00:00:46.504Z,41.49
2023-03-04T00:01:18.809Z,41.13
2023-03-04T00:01:51.126Z,41.22
2023-03-04T00:02:23.440Z,41.57
2023-03-04T00:02:58.330Z,41.27
2023-03-04T00:03:33.222Z,41.25
2023-03-04T00:04:05.829Z,41.56
2023-03-04T00:04:40.694Z,41.45
2023-03-04T00:05:12.990Z,41.36
2023-03-04T00:05:45.243Z,41.18
2023-03-04T00:06:20.092Z,41.44
2023-03-04T00:06:52.348Z,41.10
2023-03-04T00:07:24.607Z,41.03
2023-03-04T00:07:59.435Z,41.22
2023-03-04T00:08:31.719Z,41.39
2023-03-04T00:09:04.844Z,41.15
2023-03-04T00:09:39.874Z,40.98
2023-03-04T00:10:12.580Z,40.96
2023-03-04T00:10:44.849Z,41.33
2023-03-04T00:11:19.723Z,41.03
2023-03-04T00:11:51.963Z,41.06
2023-03-04T00:12:24.275Z,41.05
2023-03-04T00:12:59.104Z,41.38
2023-03-04T00:13:31.513Z,40.88
2023-03-04T00:14:03.756Z,41.11
2023-03-04T00:14:36.010Z,41.36
2023-03-04T00:15:12.179Z,41.22
2023-03-04T00:15:44.472Z,41.37
2023-03-04T00:16:16.952Z,40.97
2023-03-04T00:16:51.950Z,41.13
2023-03-04T00:17:24.343Z,41.03
2023-03-04T00:17:56.643Z,41.20
2023-03-04T00:18:31.560Z,41.46
2023-03-04T00:19:06.427Z,41.42
2023-03-04T00:19:38.713Z,41.20
2023-03-04T00:20:15.028Z,41.07
2023-03-04T00:20:47.329Z,41.13
2023-03-04T00:21:19.621Z,41.38
2023-03-04T00:21:51.854Z,41.22
2023-03-04T00:22:26.728Z,41.34
2023-03-04T00:22:58.975Z,41.37
2023-03-04T00:23:31.299Z,41.16
2023-03-04T00:24:06.408Z,41.03
2023-03-04T00:24:38.680Z,41.08
2023-03-04T00:25:10.955Z,41.17
2023-03-04T00:25:43.738Z,41.27
2023-03-04T00:26:18.753Z,41.15
2023-03-04T00:26:52.060Z,41.42
2023-03-04T00:27:24.316Z,40.94
2023-03-04T00:27:58.398Z,41.18
2023-03-04T00:28:34.236Z,40.93
2023-03-04T00:29:06.540Z,41.25
2023-03-04T00:29:39.080Z,41.00
2023-03-04T00:30:14.964Z,41.37
2023-03-04T00:30:48.121Z,41.44
2023-03-04T00:31:20.487Z,41.20
2023-03-04T00:31:55.533Z,41.34
2023-03-04T00:32:28.047Z,41.04
2023-03-04T00:33:00.305Z,41.02
2023-03-04T00:33:32.632Z,41.37
2023-03-04T00:34:10.152Z,41.38
2023-03-04T00:34:43.281Z,41.25
2023-03-04T00:35:16.034Z,41.20
2023-03-04T00:35:50.971Z,41.32
2023-03-04T00:36:23.245Z,40.96
2023-03-04T00:37:01.268Z,40.99
2023-03-04T00:37:36.294Z,41.03
2023-03-04T00:38:08.765Z,41.18
2023-03-04T00:38:41.653Z,40.96
2023-03-04T00:39:17.160Z,41.42
2023-03-04T00:39:49.402Z,41.27
2023-03-04T00:40:21.699Z,41.35
2023-03-04T00:40:56.800Z,41.04
2023-03-04T00:41:29.068Z,41.39
2023-03-04T00:42:01.400Z,41.15
2023-03-04T00:42:36.312Z,41.46
2023-03-04T00:43:08.590Z,41.51
2023-03-04T00:43:40.879Z,41.05
2023-03-04T00:44:15.741Z,41.23
2023-03-04T00:44:49.711Z,41.20
2023-03-04T00:45:21.947Z,40.96
2023-03-04T00:45:56.810Z,41.32
2023-03-04T00:46:29.064Z,41.22
2023-03-04T00:47:01.314Z,41.05
2023-03-04T00:47:36.218Z,41.40
2023-03-04T00:48:08.715Z,41.08
2023-03-04T00:48:41.094Z,41.56
2023-03-04T00:49:18.585Z,41.10
2023-03-04T00:49:50.835Z,41.40
2023-03-04T00:50:23.571Z,41.29
2023-03-04T00:50:55.993Z,40.98
2023-03-04T00:51:30.897Z,41.24
2023-03-04T00:52:03.158Z,41.22
2023-03-04T00:52:35.430Z,41.02
2023-03-04T00:53:10.350Z,41.49
2023-03-04T00:53:43.293Z,41.29
2023-03-04T00:54:15.536Z,41.24
2023-03-04T00:54:50.363Z,41.49
2023-03-04T00:55:22.646Z,40.93
2023-03-04T00:55:54.882Z,41.30
2023-03-04T00:56:29.739Z,41.27
2023-03-04T00:57:01.972Z,41.25
2023-03-04T00:57:34.208Z,41.28
2023-03-04T00:58:06.533Z,41.36
2023-03-04T00:58:41.599Z,41.34
2023-03-04T00:59:13.820Z,40.98
2023-03-04T00:59:46.504Z,41.13
2023-03-04T01:00:22.348Z,41.15
2023-03-04T01:00:54.750Z,41.12
2023-03-04T01:01:27.202Z,41.17
2023-03-04T01:02:02.145Z,40.94
2023-03-04T01:02:35.685Z,41.16
2023-03-04T01:03:08.003Z,41.40
2023-03-04T01:03:43.535Z,41.30
2023-03-04T01:04:18.771Z,40.98
2023-03-04T01:04:51.191Z,41.16
2023-03-04T01:05:26.094Z,41.13
2023-03-04T01:05:59.572Z,41.32
2023-03-04T01:06:31.819Z,41.30
2023-03-04T01:07:06.760Z,40.88
2023-03-04T01:07:39.304Z,40.95
2023-03-04T01:08:14.141Z,41.39
2023-03-04T01:08:46.416Z,40.98
2023-03-04T01:09:19.481Z,40.97
2023-03-04T01:09:54.300Z,40.98
2023-03-04T01:10:26.539Z,40.95
2023-03-04T01:10:58.804Z,40.93
2023-03-04T01:11:31.132Z,40.92
2023-03-04T01:12:06.374Z,41.36
2023-03-04T01:12:40.279Z,41.28
2023-03-04T01:13:12.568Z,41.13
2023-03-04T01:13:47.421Z,41.04
2023-03-04T01:14:19.804Z,41.27
2023-03-04T01:14:52.095Z,41.37
2023-03-04T01:15:27.165Z,40.91
2023-03-04T01:15:59.556Z,41.15
2023-03-04T01:16:31.909Z,41.37
2023-03-04T01:17:06.934Z,41.40
2023-03-04T01:17:39.229Z,40.93
2023-03-04T01:18:11.664Z,41.10
2023-03-04T01:18:47.652Z,41.10
2023-03-04T01:19:22.645Z,41.03
2023-03-04T01:19:54.893Z,41.31
2023-03-04T01:20:29.772Z,41.10
2023-03-04T01:21:02.036Z,41.14
2023-03-04T01:21:35.097Z,41.16
2023-03-04T01:22:10.920Z,41.38
2023-03-04T01:22:43.200Z,41.22
2023-03-04T01:23:15.548Z,41.25
2023-03-04T01:23:50.514Z,41.45
2023-03-04T01:24:22.836Z,40.98
2023-03-04T01:24:55.083Z,41.40
2023-03-04T01:25:27.336Z,41.39
2023-03-04T01:26:02.410Z,41.10
2023-03-04T01:26:34.785Z,41.28
2023-03-04T01:27:07.223Z,41.32
2023-03-04T01:27:42.096Z,41.21
2023-03-04T01:28:14.415Z,41.10
2023-03-04T01:28:46.796Z,41.08
2023-03-04T01:29:21.664Z,41.09
2023-03-04T01:29:53.919Z,41.05
2023-03-04T01:30:28.007Z,41.08
2023-03-04T01:31:04.690Z,41.14
2023-03-04T01:31:37.026Z,41.36
2023-03-04T01:32:09.308Z,41.27
2023-03-04T01:32:44.382Z,41.43
2023-03-04T01:33:17.720Z,41.24
2023-03-04T01:33:49.980Z,41.56
2023-03-04T01:34:27.521Z,41.03
2023-03-04T01:34:59.751Z,40.91
2023-03-04T01:35:32.031Z,41.34
2023-03-04T01:36:07.825Z,40.93
2023-03-04T01:36:40.091Z,40.88
2023-03-04T01:37:13.705Z,41.33
2023-03-04T01:37:48.569Z,41.32
2023-03-04T01:38:20.830Z,41.27
2023-03-04T01:38:53.143Z,40.89
2023-03-04T01:39:28.005Z,41.37
2023-03-04T01:40:00.269Z,40.96
2023-03-04T01:40:32.695Z,41.27
2023-03-04T01:41:08.181Z,40.96
2023-03-04T01:41:40.443Z,41.29
2023-03-04T01:42:18.392Z,41.09
2023-03-04T01:42:53.265Z,41.28
2023-03-04T01:43:27.757Z,41.03
2023-03-04T01:44:02.416Z,41.08
2023-03-04T01:44:37.324Z,41.16
2023-03-04T01:45:13.296Z,41.46
2023-03-04T01:45:45.567Z,41.08
2023-03-04T01:46:21.959Z,41.03
2023-03-04T01:46:55.144Z,41.25
2023-03-04T01:47:29.469Z,41.27
2023-03-04T01:48:04.765Z,41.07
2023-03-04T01:48:38.365Z,41.01
2023-03-04T01:49:10.787Z,41.48
2023-03-04T01:49:46.224Z,41.38
2023-03-04T01:50:25.148Z,41.00
2023-03-04T01:50:59.334Z,41.32
2023-03-04T01:51:31.709Z,41.41
2023-03-04T01:52:06.662Z,41.29
2023-03-04T01:52:39.733Z,41.35
2023-03-04T01:53:20.296Z,40.88
2023-03-04T01:53:55.049Z,40.90
2023-03-04T01:54:27.310Z,41.10
2023-03-04T01:55:02.265Z,41.18
2023-03-04T01:55:34.527Z,41.34
2023-03-04T01:56:13.696Z,40.96
2023-03-04T01:56:49.945Z,40.95
2023-03-04T01:57:25.038Z,41.32
2023-03-04T01:57:57.644Z,40.85
2023-03-04T01:58:34.056Z,41.05
2023-03-04T01:59:11.150Z,40.92
2023-03-04T01:59:43.598Z,41.24
2023-03-04T02:00:23.534Z,41.01
2023-03-04T02:00:55.855Z,41.04
2023-03-04T02:01:28.140Z,41.13
2023-03-04T02:02:03.518Z,41.03
2023-03-04T02:02:35.769Z,40.87
2023-03-04T02:03:11.540Z,41.27
2023-03-04T02:03:46.408Z,41.26
2023-03-04T02:04:20.111Z,40.79
2023-03-04T02:04:55.424Z,40.81
2023-03-04T02:05:30.669Z,40.76
2023-03-04T02:06:02.962Z,40.79
2023-03-04T02:06:35.743Z,40.96
2023-03-04T02:07:10.826Z,40.92
2023-03-04T02:07:43.467Z,41.17
2023-03-04T02:08:19.326Z,40.91
2023-03-04T02:08:51.563Z,40.70
2023-03-04T02:09:24.051Z,40.94
2023-03-04T02:09:58.933Z,40.86
2023-03-04T02:10:31.588Z,41.03
2023-03-04T02:11:03.968Z,41.12
2023-03-04T02:11:39.513Z,41.25
2023-03-04T02:12:11.843Z,41.08
2023-03-04T02:12:44.780Z,40.94
2023-03-04T02:13:20.366Z,41.15
2023-03-04T02:13:52.816Z,40.94
2023-03-04T02:14:26.097Z,40.66
2023-03-04T02:15:00.957Z,41.22
2023-03-04T02:15:33.245Z,40.84
2023-03-04T02:16:08.442Z,41.20
2023-03-04T02:16:40.800Z,40.79
2023-03-04T02:17:13.820Z,41.15
2023-03-04T02:17:49.005Z,40.95
2023-03-04T02:18:22.465Z,40.82
2023-03-04T02:18:55.240Z,40.93
2023-03-04T02:19:39.859Z,41.18
2023-03-04T02:20:24.022Z,40.85
2023-03-04T02:21:03.302Z,40.88
2023-03-04T02:21:38.297Z,40.70
2023-03-04T02:22:10.725Z,40.93
2023-03-04T02:22:48.532Z,41.15
2023-03-04T02:23:28.381Z,40.76
2023-03-04T02:24:06.130Z,40.76
2023-03-04T02:24:44.465Z,40.91
2023-03-04T02:25:21.160Z,41.30
2023-03-04T02:26:16.733Z,41.16
2023-03-04T02:26:49.556Z,40.93
2023-03-04T02:27:22.723Z,41.20
2023-03-04T02:27:57.912Z,40.86
2023-03-04T02:28:30.349Z,41.04
2023-03-04T02:29:06.686Z,41.11
2023-03-04T02:29:39.686Z,40.86
2023-03-04T02:30:13.733Z,41.16
2023-03-04T02:30:46.382Z,41.13
2023-03-04T02:31:27.347Z,40.91
2023-03-04T02:32:00.940Z,41.14
2023-03-04T02:32:33.378Z,41.20
2023-03-04T02:33:05.734Z,41.20
2023-03-04T02:33:40.593Z,41.05
2023-03-04T02:34:14.864Z,40.99
2023-03-04T02:34:49.357Z,40.75
2023-03-04T02:35:22.140Z,41.12
2023-03-04T02:35:57.080Z,40.83
2023-03-04T02:36:30.290Z,41.10
2023-03-04T02:37:03.284Z,41.23
2023-03-04T02:37:39.521Z,41.15
2023-03-04T02:38:12.300Z,40.79
2023-03-04T02:38:44.611Z,41.06
2023-03-04T02:39:26.480Z,40.98
2023-03-04T02:39:59.712Z,41.10
2023-03-04T02:40:33.805Z,40.76
2023-03-04T02:41:13.549Z,40.93
2023-03-04T02:41:47.357Z,41.14
2023-03-04T02:42:20.804Z,41.12
2023-03-04T02:42:55.649Z,41.16
2023-03-04T02:43:29.460Z,41.17
2023-03-04T02:44:01.730Z,40.76
2023-03-04T02:44:38.341Z,40.85
2023-03-04T02:45:31.047Z,41.14
2023-03-04T02:46:03.302Z,40.98
2023-03-04T02:46:38.191Z,40.96
2023-03-04T02:47:11.980Z,40.83
2023-03-04T02:47:44.243Z,40.70
2023-03-04T02:48:21.799Z,41.13
2023-03-04T02:48:54.421Z,41.13
2023-03-04T02:49:28.621Z,40.81
2023-03-04T02:50:01.613Z,40.94
2023-03-04T02:50:39.813Z,41.13
2023-03-04T02:51:12.194Z,40.97
2023-03-04T02:51:44.447Z,40.88
2023-03-04T02:52:22.809Z,40.87
2023-03-04T02:52:55.070Z,40.83
2023-03-04T02:53:27.421Z,41.20
2023-03-04T02:54:02.578Z,40.93
2023-03-04T02:54:35.261Z,41.15
2023-03-04T02:55:09.429Z,40.80
2023-03-04T02:55:44.850Z,41.13
2023-03-04T02:56:20.425Z,40.76
2023-03-04T02:56:54.805Z,41.03
2023-03-04T02:57:31.094Z,40.85
2023-03-04T02:58:03.849Z,40.86
2023-03-04T02:58:38.798Z,41.11
2023-03-04T02:59:11.092Z,40.79
2023-03-04T02:59:43.888Z,41.05
2023-03-04T03:00:24.148Z,40.71
2023-03-04T03:00:57.852Z,40.71
2023-03-04T03:01:32.913Z,41.07
2023-03-04T03:02:08.392Z,40.97
2023-03-04T03:02:40.772Z,40.91
2023-03-04T03:03:13.100Z,41.14
2023-03-04T03:03:48.021Z,40.79
2023-03-04T03:04:21.277Z,40.66
2023-03-04T03:04:54.800Z,40.86
2023-03-04T03:05:31.094Z,40.69
2023-03-04T03:06:03.564Z,40.97
2023-03-04T03:06:35.949Z,40.61
2023-03-04T03:07:10.883Z,40.85
2023-03-04T03:07:43.828Z,40.72
2023-03-04T03:08:16.840Z,40.57
2023-03-04T03:08:51.715Z,40.95
2023-03-04T03:09:24.889Z,41.00
2023-03-04T03:09:57.165Z,40.71
2023-03-04T03:10:32.196Z,41.03
2023-03-04T03:11:05.014Z,40.79
2023-03-04T03:11:41.126Z,40.56
2023-03-04T03:12:16.762Z,40.93
2023-03-04T03:12:50.073Z,40.65
2023-03-04T03:13:22.333Z,40.69
2023-03-04T03:13:57.294Z,40.81
2023-03-04T03:14:29.827Z,40.98
2023-03-04T03:15:02.413Z,40.83
2023-03-04T03:15:34.683Z,40.54
2023-03-04T03:16:10.070Z,40.69
2023-03-04T03:16:43.370Z,40.70
2023-03-04T03:17:16.600Z,40.98
2023-03-04T03:17:51.578Z,40.93
2023-03-04T03:18:23.816Z,40.98
2023-03-04T03:18:56.049Z,40.93
2023-03-04T03:19:32.214Z,41.05
2023-03-04T03:20:07.957Z,40.95
2023-03-04T03:20:40.265Z,40.85
2023-03-04T03:21:15.857Z,40.90
2023-03-04T03:21:48.134Z,40.59
2023-03-04T03:22:20.397Z,40.60
2023-03-04T03:22:55.820Z,40.87
2023-03-04T03:23:28.047Z,41.03
2023-03-04T03:24:00.324Z,41.05
2023-03-04T03:24:35.230Z,40.91
2023-03-04T03:25:09.827Z,41.12
2023-03-04T03:25:42.183Z,40.85
2023-03-04T03:26:17.213Z,40.77
2023-03-04T03:26:52.463Z,40.61
2023-03-04T03:27:25.069Z,41.00
2023-03-04T03:27:59.957Z,40.99
2023-03-04T03:28:32.516Z,41.03
2023-03-04T03:29:05.872Z,40.71
2023-03-04T03:29:40.731Z,41.14
2023-03-04T03:30:15.250Z,41.10
2023-03-04T03:30:50.119Z,40.93
2023-03-04T03:31:22.386Z,40.67
2023-03-04T03:31:54.808Z,40.66
2023-03-04T03:32:27.195Z,40.92
2023-03-04T03:33:02.135Z,40.90
2023-03-04T03:33:34.426Z,40.56
2023-03-04T03:34:06.808Z,40.57
2023-03-04T03:34:39.143Z,40.83
2023-03-04T03:35:14.031Z,40.74
2023-03-04T03:35:47.832Z,40.97
2023-03-04T03:36:20.143Z,41.00
2023-03-04T03:36:55.074Z,40.86
2023-03-04T03:37:27.524Z,40.99
2023-03-04T03:38:02.395Z,41.03
2023-03-04T03:38:34.938Z,40.63
2023-03-04T03:39:07.221Z,40.72
2023-03-04T03:39:39.441Z,40.86
2023-03-04T03:40:16.219Z,40.59
2023-03-04T03:40:48.509Z,40.57
2023-03-04T03:41:20.804Z,40.62
2023-03-04T03:41:55.687Z,40.71
2023-03-04T03:42:31.529Z,41.01
2023-03-04T03:43:03.880Z,41.05
2023-03-04T03:43:36.109Z,40.83
2023-03-04T03:44:10.964Z,41.13
2023-03-04T03:44:43.240Z,41.17
2023-03-04T03:45:15.735Z,40.64
2023-03-04T03:45:52.021Z,40.65
2023-03-04T03:46:24.473Z,40.72
2023-03-04T03:46:56.806Z,40.88
2023-03-04T03:47:31.712Z,41.00
2023-03-04T03:48:04.415Z,41.13
2023-03-04T03:48:36.691Z,40.86
2023-03-04T03:49:11.720Z,40.69
2023-03-04T03:49:44.063Z,40.68
2023-03-04T03:50:17.047Z,40.70
2023-03-04T03:50:51.899Z,40.88
2023-03-04T03:51:24.137Z,41.08
2023-03-04T03:51:56.420Z,41.02
2023-03-04T03:52:31.262Z,41.05
2023-03-04T03:53:03.850Z,41.05
2023-03-04T03:53:36.168Z,41.11
2023-03-04T03:54:11.170Z,41.16
2023-03-04T03:54:43.552Z,41.13
2023-03-04T03:55:18.568Z,41.05
2023-03-04T03:55:50.818Z,41.05
2023-03-04T03:56:23.049Z,40.86
2023-03-04T03:56:57.878Z,40.93
2023-03-04T03:57:32.865Z,40.74
2023-03-04T03:58:05.247Z,40.77
2023-03-04T03:58:37.493Z,40.67
2023-03-04T03:59:12.345Z,41.13
2023-03-04T03:59:44.660Z,40.97
2023-03-04T04:00:18.038Z,41.12
2023-03-04T04:00:52.927Z,40.68
2023-03-04T04:01:25.205Z,40.62
2023-03-04T04:01:57.489Z,40.81
2023-03-04T04:02:32.472Z,40.93
2023-03-04T04:03:04.817Z,40.81
2023-03-04T04:03:37.091Z,40.86
2023-03-04T04:04:11.960Z,40.62
2023-03-04T04:04:44.225Z,40.98
2023-03-04T04:05:16.578Z,40.88
2023-03-04T04:05:51.456Z,40.88
2023-03-04T04:06:23.725Z,40.88
2023-03-04T04:06:55.971Z,40.65
2023-03-04T04:07:30.813Z,40.86
2023-03-04T04:08:03.072Z,40.69
2023-03-04T04:08:35.430Z,40.98
2023-03-04T04:09:10.379Z,40.83
2023-03-04T04:09:42.630Z,41.15
2023-03-04T04:10:14.896Z,40.78
2023-03-04T04:10:49.816Z,40.93
2023-03-04T04:11:22.248Z,41.05
2023-03-04T04:11:54.534Z,41.09
2023-03-04T04:12:31.981Z,41.07
2023-03-04T04:13:04.292Z,40.90
2023-03-04T04:13:39.138Z,40.86
2023-03-04T04:14:15.064Z,40.93
2023-03-04T04:14:47.319Z,40.80
2023-03-04T04:15:19.598Z,40.67
2023-03-04T04:15:54.565Z,40.86
2023-03-04T04:16:26.943Z,40.96
2023-03-04T04:16:59.294Z,40.81
2023-03-04T04:17:34.175Z,40.76
2023-03-04T04:18:06.929Z,40.95
2023-03-04T04:18:39.212Z,41.02
2023-03-04T04:19:19.633Z,40.86
2023-03-04T04:19:51.867Z,40.53
2023-03-04T04:20:26.146Z,40.92
2023-03-04T04:21:01.229Z,40.62
2023-03-04T04:21:33.627Z,40.80
2023-03-04T04:22:05.853Z,40.72
2023-03-04T04:22:40.732Z,41.00
2023-03-04T04:23:13.073Z,40.86
2023-03-04T04:23:45.318Z,40.57
2023-03-04T04:24:20.232Z,40.77
2023-03-04T04:24:52.521Z,40.97
2023-03-04T04:25:24.815Z,40.93
2023-03-04T04:26:00.295Z,40.93
2023-03-04T04:26:32.553Z,40.67
2023-03-04T04:27:04.995Z,40.97
2023-03-04T04:27:42.455Z,41.00
2023-03-04T04:28:14.728Z,41.01
2023-03-04T04:28:46.972Z,40.91
2023-03-04T04:29:23.257Z,40.55
2023-03-04T04:29:55.494Z,41.05
2023-03-04T04:30:27.758Z,40.76
2023-03-04T04:31:02.732Z,40.79
2023-03-04T04:31:35.001Z,40.91
2023-03-04T04:32:07.575Z,40.91
2023-03-04T04:32:42.462Z,40.59
2023-03-04T04:33:14.716Z,40.89
2023-03-04T04:33:46.969Z,40.61
2023-03-04T04:34:19.311Z,40.87
2023-03-04T04:34:54.162Z,40.79
2023-03-04T04:35:26.591Z,40.86
2023-03-04T04:36:01.402Z,40.76
2023-03-04T04:36:36.289Z,40.79
2023-03-04T04:37:08.665Z,40.85
2023-03-04T04:37:40.928Z,40.57
2023-03-04T04:38:15.873Z,40.62
2023-03-04T04:38:49.471Z,41.00
2023-03-04T04:39:21.747Z,40.93
2023-03-04T04:39:57.498Z,40.83
2023-03-04T04:40:29.804Z,40.56
2023-03-04T04:41:02.073Z,40.78
2023-03-04T04:41:40.152Z,40.47
2023-03-04T04:42:12.481Z,40.65
2023-03-04T04:42:47.344Z,40.79
2023-03-04T04:43:22.189Z,40.74
2023-03-04T04:43:54.470Z,40.54
2023-03-04T04:44:26.712Z,40.57
2023-03-04T04:45:01.569Z,40.55
2023-03-04T04:45:34.628Z,40.71
2023-03-04T04:46:06.959Z,40.80
2023-03-04T04:46:42.624Z,40.79
2023-03-04T04:47:14.922Z,40.83
2023-03-04T04:47:47.176Z,40.96
2023-03-04T04:48:22.038Z,40.77
2023-03-04T04:48:54.272Z,40.96
2023-03-04T04:49:26.508Z,40.92
2023-03-04T04:50:01.378Z,40.54
2023-03-04T04:50:33.618Z,40.91
2023-03-04T04:51:06.303Z,40.93
2023-03-04T04:51:41.631Z,40.89
2023-03-04T04:52:13.869Z,40.61
2023-03-04T04:52:46.134Z,40.79
2023-03-04T04:53:20.977Z,40.68
2023-03-04T04:53:53.237Z,40.87
2023-03-04T04:54:25.731Z,40.83
2023-03-04T04:55:00.568Z,40.73
2023-03-04T04:55:34.347Z,40.86
2023-03-04T04:56:10.857Z,40.77
2023-03-04T04:56:45.787Z,40.80
2023-03-04T04:57:18.040Z,40.46
2023-03-04T04:57:52.922Z,40.73
2023-03-04T04:58:27.823Z,40.70
2023-03-04T04:59:03.032Z,40.57
2023-03-04T04:59:37.890Z,40.58
2023-03-04T05:00:11.948Z,40.73
2023-03-04T05:00:44.197Z,40.64
2023-03-04T05:01:19.375Z,40.96
2023-03-04T05:01:51.659Z,40.44
2023-03-04T05:02:23.924Z,40.52
2023-03-04T05:02:58.799Z,40.93
2023-03-04T05:03:31.232Z,40.62
2023-03-04T05:04:03.640Z,40.72
2023-03-04T05:04:38.508Z,40.67
2023-03-04T05:05:11.149Z,40.47
2023-03-04T05:05:43.393Z,40.65
2023-03-04T05:06:18.946Z,40.54
2023-03-04T05:06:51.219Z,40.52
2023-03-04T05:07:23.464Z,40.45
2023-03-04T05:07:58.315Z,40.83
2023-03-04T05:08:30.590Z,40.42
2023-03-04T05:09:02.934Z,40.81
2023-03-04T05:09:37.796Z,40.71
2023-03-04T05:10:11.479Z,40.91
2023-03-04T05:10:43.710Z,40.47
2023-03-04T05:11:19.571Z,40.82
2023-03-04T05:11:51.804Z,40.47
2023-03-04T05:12:24.044Z,40.88
2023-03-04T05:13:01.478Z,40.52
2023-03-04T05:13:33.909Z,40.33
2023-03-04T05:14:06.147Z,40.88
2023-03-04T05:14:41.041Z,40.71
2023-03-04T05:15:13.376Z,40.52
2023-03-04T05:15:45.799Z,40.71
2023-03-04T05:16:20.784Z,40.69
2023-03-04T05:16:53.189Z,40.67
2023-03-04T05:17:25.520Z,40.61
2023-03-04T05:17:57.814Z,40.29
2023-03-04T05:18:32.803Z,40.41
2023-03-04T05:19:05.076Z,40.45
2023-03-04T05:19:37.347Z,40.29
2023-03-04T05:20:13.850Z,40.68
2023-03-04T05:20:46.146Z,40.21
2023-03-04T05:21:18.578Z,40.38
2023-03-04T05:21:53.442Z,40.37
2023-03-04T05:22:26.094Z,40.64
2023-03-04T05:22:58.380Z,40.25
2023-03-04T05:23:35.173Z,40.28
2023-03-04T05:24:08.125Z,40.23
2023-03-04T05:24:40.347Z,40.69
2023-03-04T05:25:15.239Z,40.35
2023-03-04T05:25:47.690Z,40.52
2023-03-04T05:26:20.043Z,40.46
2023-03-04T05:26:54.889Z,40.43
2023-03-04T05:27:27.121Z,40.26
2023-03-04T05:28:02.305Z,40.17
2023-03-04T05:28:37.752Z,40.62
2023-03-04T05:29:10.083Z,40.37
2023-03-04T05:29:44.844Z,40.66
2023-03-04T05:30:20.171Z,40.60
2023-03-04T05:30:52.445Z,40.28
2023-03-04T05:31:27.418Z,40.41
2023-03-04T05:31:59.947Z,40.45
2023-03-04T05:32:32.199Z,40.32
2023-03-04T05:33:04.700Z,40.45
2023-03-04T05:33:40.024Z,40.50
2023-03-04T05:34:12.261Z,40.25
2023-03-04T05:34:44.519Z,40.21
2023-03-04T05:35:16.896Z,40.38
2023-03-04T05:35:52.276Z,40.32
2023-03-04T05:36:24.562Z,40.35
2023-03-04T05:36:56.797Z,40.28
2023-03-04T05:37:29.061Z,40.27
2023-03-04T05:38:03.931Z,40.52
2023-03-04T05:38:36.336Z,40.42
2023-03-04T05:39:08.591Z,40.69
2023-03-04T05:39:43.432Z,40.25
2023-03-04T05:40:15.892Z,40.47
2023-03-04T05:40:48.962Z,40.44
2023-03-04T05:41:23.897Z,40.53
2023-03-04T05:41:56.180Z,40.28
2023-03-04T05:42:28.470Z,40.35
2023-03-04T05:43:05.965Z,40.71
2023-03-04T05:43:42.879Z,40.71
2023-03-04T05:44:15.229Z,40.58
2023-03-04T05:44:51.048Z,40.69
2023-03-04T05:45:25.281Z,40.35
2023-03-04T05:45:57.844Z,40.23
2023-03-04T05:46:33.772Z,40.22
2023-03-04T05:47:06.249Z,40.72
2023-03-04T05:47:38.599Z,40.28
2023-03-04T05:48:13.471Z,40.64
2023-03-04T05:48:45.772Z,40.56
2023-03-04T05:49:18.306Z,40.42
2023-03-04T05:49:53.152Z,40.47
2023-03-04T05:50:25.538Z,40.35
2023-03-04T05:51:00.051Z,40.71
2023-03-04T05:51:34.932Z,40.74
2023-03-04T05:52:07.200Z,40.72
2023-03-04T05:52:40.509Z,40.59
2023-03-04T05:53:15.357Z,40.47
2023-03-04T05:53:47.776Z,40.84
2023-03-04T05:54:20.064Z,40.42
2023-03-04T05:54:54.915Z,40.83
2023-03-04T05:55:30.048Z,40.83
2023-03-04T05:56:07.693Z,40.79
2023-03-04T05:56:42.554Z,40.75
2023-03-04T05:57:15.816Z,40.52
2023-03-04T05:57:48.359Z,40.59
2023-03-04T05:58:25.892Z,40.79
2023-03-04T05:58:58.459Z,40.65
2023-03-04T05:59:30.719Z,40.54
2023-03-04T06:00:09.486Z,40.83
2023-03-04T06:00:45.028Z,40.38
2023-03-04T06:01:20.438Z,40.51
2023-03-04T06:01:52.727Z,40.34
2023-03-04T06:02:25.086Z,40.53
2023-03-04T06:03:00.170Z,40.64
2023-03-04T06:03:32.879Z,40.64
2023-03-04T06:04:05.515Z,40.65
2023-03-04T06:04:40.356Z,40.74
2023-03-04T06:05:13.990Z,40.68
2023-03-04T06:05:46.244Z,40.59
2023-03-04T06:06:21.292Z,40.44
2023-03-04T06:06:53.596Z,40.85
2023-03-04T06:07:25.928Z,40.44
2023-03-04T06:08:00.799Z,40.84
2023-03-04T06:08:33.213Z,40.65
2023-03-04T06:09:05.508Z,40.63
2023-03-04T06:09:40.529Z,40.38
2023-03-04T06:10:15.212Z,40.84
2023-03-04T06:10:47.467Z,41.05
2023-03-04T06:11:22.324Z,42.30
2023-03-04T06:11:54.593Z,42.43
2023-03-04T06:12:28.882Z,42.67
2023-03-04T06:13:03.711Z,43.11
2023-03-04T06:13:39.027Z,43.66
2023-03-04T06:14:11.326Z,43.40
2023-03-04T06:14:46.218Z,43.42
2023-03-04T06:15:18.725Z,43.09
2023-03-04T06:15:55.111Z,43.85
2023-03-04T06:16:30.154Z,43.70
2023-03-04T06:17:02.460Z,43.61
2023-03-04T06:17:34.705Z,43.84
2023-03-04T06:18:09.632Z,43.38
2023-03-04T06:18:41.919Z,43.49
2023-03-04T06:19:14.236Z,43.18
2023-03-04T06:19:49.073Z,42.79
2023-03-04T06:20:21.513Z,42.97
2023-03-04T06:21:01.211Z,42.59
2023-03-04T06:21:33.453Z,42.32
2023-03-04T06:22:05.942Z,42.12
2023-03-04T06:22:40.810Z,42.37
2023-03-04T06:23:13.064Z,42.24
2023-03-04T06:23:45.772Z,42.07
2023-03-04T06:24:20.792Z,41.54
2023-03-04T06:24:53.023Z,41.56
2023-03-04T06:25:28.170Z,41.78
2023-03-04T06:26:00.996Z,41.44
2023-03-04T06:26:33.341Z,41.22
2023-03-04T06:27:08.596Z,41.51
2023-03-04T06:27:40.852Z,41.44
2023-03-04T06:28:13.079Z,41.33
2023-03-04T06:28:50.518Z,41.40
2023-03-04T06:29:23.178Z,41.21
2023-03-04T06:29:55.417Z,40.97
2023-03-04T06:30:31.748Z,41.09
2023-03-04T06:31:04.208Z,41.10
2023-03-04T06:31:36.539Z,41.15
2023-03-04T06:32:08.886Z,40.57
2023-03-04T06:32:44.462Z,40.83
2023-03-04T06:33:16.691Z,40.95
2023-03-04T06:33:48.973Z,40.48
2023-03-04T06:34:24.278Z,40.93
2023-03-04T06:34:56.608Z,40.69
2023-03-04T06:35:29.003Z,40.61
2023-03-04T06:36:03.887Z,40.59
2023-03-04T06:36:36.112Z,40.62
2023-03-04T06:37:08.368Z,40.79
2023-03-04T06:37:43.498Z,40.54
2023-03-04T06:38:15.813Z,41.29
2023-03-04T06:38:48.141Z,41.92
2023-03-04T06:39:22.990Z,41.29
2023-03-04T06:39:56.270Z,41.15
2023-03-04T06:40:28.716Z,40.58
2023-03-04T06:41:09.867Z,40.83
2023-03-04T06:41:42.116Z,40.87
2023-03-04T06:42:15.238Z,40.87
2023-03-04T06:42:50.130Z,40.61
2023-03-04T06:43:22.485Z,40.82
2023-03-04T06:43:57.648Z,40.73
2023-03-04T06:44:32.676Z,40.69
2023-03-04T06:45:05.949Z,40.65
2023-03-04T06:45:39.337Z,40.50
2023-03-04T06:46:14.270Z,40.69
2023-03-04T06:46:46.612Z,40.41
2023-03-04T06:47:19.142Z,40.58
2023-03-04T06:47:53.996Z,40.37
2023-03-04T06:48:26.241Z,40.14
2023-03-04T06:48:58.506Z,40.36
2023-03-04T06:49:33.364Z,40.45
2023-03-04T06:50:06.331Z,40.62
2023-03-04T06:50:42.983Z,40.33
2023-03-04T06:51:15.406Z,40.37
2023-03-04T06:51:47.665Z,40.33
2023-03-04T06:52:22.513Z,40.26
2023-03-04T06:52:56.769Z,40.28
2023-03-04T06:53:31.617Z,40.12
2023-03-04T06:54:04.216Z,40.35
2023-03-04T06:54:36.446Z,40.24
2023-03-04T06:55:13.136Z,40.48
2023-03-04T06:55:45.416Z,39.99
2023-03-04T06:56:18.002Z,39.36
2023-03-04T06:56:52.916Z,39.43
2023-03-04T06:57:25.200Z,39.57
2023-03-04T06:57:57.483Z,39.94
2023-03-04T06:58:32.319Z,39.89
2023-03-04T06:59:07.248Z,40.06
2023-03-04T06:59:39.537Z,39.87
2023-03-04T07:00:15.896Z,40.35
2023-03-04T07:00:48.160Z,40.04
2023-03-04T07:01:22.090Z,40.15
2023-03-04T07:01:57.413Z,40.55
2023-03-04T07:02:29.775Z,40.81
2023-03-04T07:03:02.253Z,40.77
2023-03-04T07:03:37.148Z,40.83
2023-03-04T07:04:09.455Z,40.77
2023-03-04T07:04:41.833Z,40.82
2023-03-04T07:05:16.713Z,41.03
2023-03-04T07:05:48.965Z,41.10
2023-03-04T07:06:23.076Z,40.85
2023-03-04T07:06:57.931Z,41.35
2023-03-04T07:07:30.224Z,41.33
2023-03-04T07:08:06.248Z,41.27
2023-03-04T07:08:38.902Z,41.49
2023-03-04T07:09:11.164Z,41.09
2023-03-04T07:09:46.001Z,41.32
2023-03-04T07:10:18.532Z,41.58
2023-03-04T07:10:50.796Z,41.20
2023-03-04T07:11:25.801Z,41.22
2023-03-04T07:11:58.088Z,41.63
2023-03-04T07:12:30.495Z,41.46
2023-03-04T07:13:05.383Z,41.53
2023-03-04T07:13:38.537Z,41.68
2023-03-04T07:14:13.399Z,41.62
2023-03-04T07:14:48.270Z,41.61
2023-03-04T07:15:20.575Z,41.84